createdAt,value
2023-03-04T00:01:53.289Z,79.88
2023-03-04T00:04:19.716Z,79.95
2023-03-04T00:06:46.095Z,80.07
2023-03-04T00:09:12.576Z,80.25
2023-03-04T00:11:38.933Z,80.18
2023-03-04T00:14:05.289Z,80.25
2023-03-04T00:16:31.810Z,80.66
2023-03-04T00:18:58.258Z,80.02
2023-03-04T00:21:24.626Z,80.07
2023-03-04T00:23:51.015Z,80.21
2023-03-04T00:26:17.389Z,80.00
2023-03-04T00:28:43.983Z,80.04
2023-03-04T00:31:10.350Z,80.14
2023-03-04T00:33:36.981Z,80.69
2023-03-04T00:36:03.427Z,80.41
2023-03-04T00:38:29.802Z,81.11
2023-03-04T00:40:56.386Z,80.87
2023-03-04T00:43:22.755Z,80.81
2023-03-04T00:45:49.149Z,81.23
2023-03-04T00:48:15.540Z,81.43
2023-03-04T00:50:41.901Z,81.13
2023-03-04T00:53:08.282Z,80.51
2023-03-04T00:55:34.662Z,80.39
2023-03-04T00:58:01.009Z,81.50
2023-03-04T01:00:27.600Z,81.22
2023-03-04T01:02:54.007Z,80.69
2023-03-04T01:05:20.402Z,81.31
2023-03-04T01:07:47.011Z,80.14
2023-03-04T01:10:13.359Z,81.34
2023-03-04T01:12:39.711Z,80.96
2023-03-04T01:15:06.096Z,80.49
2023-03-04T01:17:32.761Z,80.94
2023-03-04T01:19:59.358Z,81.02
2023-03-04T01:22:25.719Z,80.77
2023-03-04T01:24:52.084Z,80.51
2023-03-04T01:27:18.467Z,80.60
2023-03-04T01:29:44.871Z,80.44
2023-03-04T01:32:11.475Z,80.86
2023-03-04T01:34:37.902Z,80.64
2023-03-04T01:37:06.770Z,80.79
2023-03-04T01:39:33.121Z,80.51
2023-03-04T01:41:59.474Z,81.10
2023-03-04T01:44:25.825Z,80.75
2023-03-04T01:46:52.176Z,80.52
2023-03-04T01:49:18.557Z,81.06
2023-03-04T01:51:44.940Z,80.83
2023-03-04T01:54:11.299Z,80.41
2023-03-04T01:56:37.688Z,80.88
2023-03-04T01:59:04.055Z,80.56
2023-03-04T02:01:30.453Z,80.68
2023-03-04T02:03:56.864Z,80.35
2023-03-04T02:06:23.236Z,80.63
2023-03-04T02:08:49.605Z,80.90
2023-03-04T02:11:15.979Z,81.00
2023-03-04T02:13:42.382Z,80.60
2023-03-04T02:16:09.076Z,81.32
2023-03-04T02:18:35.480Z,80.79
2023-03-04T02:21:02.064Z,80.99
2023-03-04T02:23:28.434Z,80.47
2023-03-04T02:25:54.820Z,79.89
2023-03-04T02:28:21.402Z,80.45
2023-03-04T02:30:47.761Z,80.42
2023-03-04T02:33:14.351Z,80.75
2023-03-04T02:35:59.465Z,80.55
2023-03-04T02:38:25.838Z,80.24
2023-03-04T02:40:52.198Z,80.17
2023-03-04T02:43:18.774Z,80.50
2023-03-04T02:45:45.352Z,80.66
2023-03-04T02:48:11.731Z,80.30
2023-03-04T02:50:38.100Z,80.54
2023-03-04T02:53:04.476Z,80.61
2023-03-04T02:55:30.861Z,80.55
2023-03-04T02:57:57.476Z,80.48
2023-03-04T03:00:23.870Z,81.05
2023-03-04T03:02:50.533Z,80.41
2023-03-04T03:05:16.950Z,80.75
2023-03-04T03:07:43.343Z,80.79
2023-03-04T03:10:09.734Z,80.92
2023-03-04T03:12:36.101Z,80.31
2023-03-04T03:15:02.497Z,80.52
2023-03-04T03:17:28.865Z,80.00
2023-03-04T03:19:55.266Z,80.67
2023-03-04T03:22:21.648Z,80.03
2023-03-04T03:24:48.025Z,80.32
2023-03-04T03:27:14.405Z,80.03
2023-03-04T03:29:40.833Z,80.27
2023-03-04T03:32:07.274Z,80.94
2023-03-04T03:34:33.871Z,80.38
2023-03-04T03:37:00.228Z,80.69
2023-03-04T03:39:26.586Z,80.03
2023-03-04T03:41:52.958Z,80.40
2023-03-04T03:44:19.385Z,80.83
2023-03-04T03:46:45.999Z,81.21
2023-03-04T03:49:12.385Z,80.25
2023-03-04T03:51:38.750Z,81.18
2023-03-04T03:54:05.139Z,80.49
2023-03-04T03:56:31.528Z,79.91
2023-03-04T03:58:57.944Z,80.38
2023-03-04T04:01:24.318Z,80.19
2023-03-04T04:03:50.950Z,80.24
2023-03-04T04:06:17.353Z,80.56
2023-03-04T04:08:43.972Z,80.51
2023-03-04T04:11:10.373Z,80.31
2023-03-04T04:13:39.212Z,80.80
2023-03-04T04:16:05.804Z,80.57
2023-03-04T04:18:32.212Z,80.59
2023-03-04T04:20:58.595Z,80.85
2023-03-04T04:23:24.988Z,80.48
2023-03-04T04:25:51.370Z,80.52
2023-03-04T04:28:17.749Z,80.83
2023-03-04T04:30:44.373Z,80.36
2023-03-04T04:33:10.773Z,80.58
2023-03-04T04:35:37.194Z,80.38
2023-03-04T04:38:03.590Z,80.38
2023-03-04T04:40:29.981Z,80.32
2023-03-04T04:42:56.382Z,80.65
2023-03-04T04:45:22.745Z,80.08
2023-03-04T04:47:49.343Z,80.25
2023-03-04T04:50:15.760Z,79.73
2023-03-04T04:52:42.124Z,80.34
2023-03-04T04:55:08.520Z,80.74
2023-03-04T04:57:34.895Z,80.29
2023-03-04T05:00:01.270Z,79.85
2023-03-04T05:02:27.631Z,79.81
2023-03-04T05:04:54.246Z,79.87
2023-03-04T05:07:20.632Z,79.74
2023-03-04T05:09:47.028Z,80.00
2023-03-04T05:12:13.419Z,79.62
2023-03-04T05:14:39.800Z,80.16
2023-03-04T05:17:06.192Z,79.97
2023-03-04T05:19:32.585Z,79.96
2023-03-04T05:21:59.169Z,79.66
2023-03-04T05:24:25.530Z,79.91
2023-03-04T05:26:51.908Z,79.80
2023-03-04T05:29:18.301Z,79.76
2023-03-04T05:31:44.716Z,79.96
2023-03-04T05:34:11.102Z,80.21
2023-03-04T05:36:37.494Z,80.06
2023-03-04T05:39:04.127Z,79.83
2023-03-04T05:41:30.507Z,79.95
2023-03-04T05:43:56.894Z,79.97
2023-03-04T05:46:23.328Z,79.55
2023-03-04T05:48:49.791Z,79.80
2023-03-04T05:51:16.195Z,79.90
2023-03-04T05:53:42.597Z,80.30
2023-03-04T05:56:09.004Z,80.12
2023-03-04T05:58:35.401Z,80.13
2023-03-04T06:01:01.811Z,79.58
2023-03-04T06:03:28.256Z,80.22
2023-03-04T06:05:54.661Z,79.93
2023-03-04T06:08:21.291Z,80.00
2023-03-04T06:10:47.655Z,79.97
2023-03-04T06:13:14.045Z,79.82
2023-03-04T06:15:40.441Z,79.94
2023-03-04T06:18:06.827Z,80.49
2023-03-04T06:20:33.183Z,80.11
2023-03-04T06:22:59.549Z,80.10
2023-03-04T06:25:26.153Z,79.90
2023-03-04T06:27:54.847Z,80.23
2023-03-04T06:30:21.608Z,80.23
2023-03-04T06:32:48.010Z,79.98
2023-03-04T06:35:14.421Z,79.90
2023-03-04T06:37:40.808Z,79.90
2023-03-04T06:40:07.212Z,79.38
2023-03-04T06:42:33.831Z,80.43
2023-03-04T06:45:00.214Z,80.49
2023-03-04T06:47:26.589Z,80.44
2023-03-04T06:49:52.955Z,80.08
2023-03-04T06:52:19.319Z,79.72
2023-03-04T06:54:45.686Z,80.15
2023-03-04T06:57:12.076Z,80.74
2023-03-04T06:59:38.704Z,80.33
2023-03-04T07:02:05.083Z,80.02
2023-03-04T07:04:31.459Z,80.33
2023-03-04T07:06:57.838Z,80.10
2023-03-04T07:09:24.242Z,80.89
2023-03-04T07:11:50.629Z,80.23
2023-03-04T07:14:17.044Z,79.55
2023-03-04T07:16:43.452Z,80.04
2023-03-04T07:19:09.849Z,80.16
2023-03-04T07:21:36.464Z,80.14
2023-03-04T07:24:02.874Z,79.97
2023-03-04T07:26:29.232Z,79.71
2023-03-04T07:28:55.612Z,80.02
2023-03-04T07:31:22.048Z,79.81
2023-03-04T07:33:48.496Z,79.46
2023-03-04T07:36:14.891Z,79.60
2023-03-04T07:38:41.306Z,79.64
2023-03-04T07:41:07.713Z,79.48
2023-03-04T07:43:34.309Z,79.70
2023-03-04T07:46:00.736Z,79.38
2023-03-04T07:48:27.152Z,79.75
2023-03-04T07:50:53.540Z,79.54
2023-03-04T07:53:19.905Z,79.32
2023-03-04T07:55:46.279Z,79.27
2023-03-04T07:58:12.689Z,80.05
2023-03-04T08:00:39.284Z,79.40
2023-03-04T08:03:05.678Z,79.48
2023-03-04T08:05:32.077Z,79.42
2023-03-04T08:07:58.445Z,79.57
2023-03-04T08:10:24.829Z,79.93
2023-03-04T08:12:51.214Z,79.63
2023-03-04T08:15:17.811Z,79.65
2023-03-04T08:17:44.179Z,79.44
2023-03-04T08:20:10.550Z,79.17
2023-03-04T08:22:36.959Z,79.36
2023-03-04T08:25:03.583Z,79.29
2023-03-04T08:27:29.979Z,79.27
2023-03-04T08:29:56.386Z,79.32
2023-03-04T08:32:22.975Z,79.34
2023-03-04T08:34:49.408Z,79.29
2023-03-04T08:37:15.785Z,79.47
2023-03-04T08:39:42.146Z,79.50
2023-03-04T08:42:08.772Z,79.53
2023-03-04T08:44:35.169Z,79.58
2023-03-04T08:47:01.535Z,79.57
2023-03-04T08:49:27.903Z,79.80
2023-03-04T08:51:54.280Z,79.83
2023-03-04T08:54:20.699Z,79.77
2023-03-04T08:56:47.070Z,79.79
2023-03-04T08:59:13.648Z,79.85
2023-03-04T09:01:40.063Z,80.16
2023-03-04T09:04:06.480Z,80.37
2023-03-04T09:06:32.856Z,80.25
2023-03-04T09:08:59.219Z,80.34
2023-03-04T09:11:25.585Z,80.69
2023-03-04T09:13:51.979Z,80.94
2023-03-04T09:16:18.644Z,81.02
2023-03-04T09:18:45.094Z,81.19
2023-03-04T09:21:11.504Z,81.34
2023-03-04T09:23:37.930Z,81.47
2023-03-04T09:26:04.311Z,81.40
2023-03-04T09:28:30.711Z,81.67
2023-03-04T09:30:57.285Z,81.70
2023-03-04T09:33:23.813Z,81.61
2023-03-04T09:35:50.444Z,81.46
2023-03-04T09:38:17.110Z,81.50
2023-03-04T09:40:43.494Z,81.40
2023-03-04T09:43:09.868Z,81.29
2023-03-04T09:45:36.233Z,81.17
2023-03-04T09:48:02.655Z,81.06
2023-03-04T09:50:29.319Z,81.06
2023-03-04T09:52:55.745Z,80.85
2023-03-04T09:55:22.402Z,80.88
2023-03-04T09:57:48.835Z,80.66
2023-03-04T10:00:15.347Z,80.62
2023-03-04T10:02:41.775Z,80.57
2023-03-04T10:05:08.171Z,80.57
2023-03-04T10:07:34.578Z,80.44
2023-03-04T10:10:01.026Z,80.23
2023-03-04T10:12:27.434Z,80.29
2023-03-04T10:14:53.845Z,80.51
2023-03-04T10:17:20.288Z,80.26
2023-03-04T10:19:46.680Z,80.15
2023-03-04T10:22:13.275Z,80.33
2023-03-04T10:24:39.646Z,80.23
2023-03-04T10:27:06.027Z,80.23
2023-03-04T10:29:32.385Z,80.28
2023-03-04T10:31:58.892Z,80.29
2023-03-04T10:34:25.427Z,80.40
2023-03-04T10:36:51.793Z,80.38
2023-03-04T10:39:18.356Z,80.32
2023-03-04T10:41:44.868Z,80.45
2023-03-04T10:44:11.400Z,80.46
2023-03-04T10:46:37.816Z,80.55
2023-03-04T10:49:04.185Z,80.48
2023-03-04T10:51:30.802Z,80.60
2023-03-04T10:53:57.206Z,80.51
2023-03-04T10:56:23.805Z,80.67
2023-03-04T10:58:50.194Z,80.73
2023-03-04T11:01:16.593Z,80.81
2023-03-04T11:03:43.046Z,80.64
2023-03-04T11:06:09.438Z,80.88
2023-03-04T11:08:35.801Z,80.90
2023-03-04T11:11:02.176Z,81.02
2023-03-04T11:13:28.585Z,81.10
2023-03-04T11:15:57.904Z,81.09
2023-03-04T11:18:24.848Z,81.10
2023-03-04T11:20:51.237Z,80.90
2023-03-04T11:23:17.622Z,80.92
2023-03-04T11:25:44.014Z,81.01
2023-03-04T11:28:11.524Z,81.12
2023-03-04T11:30:38.034Z,81.05
2023-03-04T11:33:04.636Z,81.13
2023-03-04T11:35:31.075Z,81.13
2023-03-04T11:37:57.514Z,81.03
2023-03-04T11:40:23.933Z,81.34
2023-03-04T11:42:50.314Z,81.26
2023-03-04T11:45:28.501Z,81.28
2023-03-04T11:47:55.471Z,81.25
2023-03-04T11:50:21.854Z,81.48
2023-03-04T11:52:48.238Z,81.26
2023-03-04T11:55:14.618Z,81.39
2023-03-04T11:57:40.998Z,80.83
2023-03-04T12:00:07.840Z,80.83
2023-03-04T12:02:34.220Z,81.09
2023-03-04T12:05:00.696Z,81.37
2023-03-04T12:07:27.127Z,81.40
2023-03-04T12:09:53.503Z,81.57
2023-03-04T12:12:19.905Z,81.45
2023-03-04T12:14:46.833Z,81.64
2023-03-04T12:17:13.199Z,81.61
2023-03-04T12:19:39.559Z,81.64
2023-03-04T12:22:05.932Z,81.78
2023-03-04T12:24:32.502Z,81.76
2023-03-04T12:26:59.084Z,81.74
2023-03-04T12:32:12.171Z,81.58
2023-03-04T12:34:38.585Z,81.50
2023-03-04T12:37:04.980Z,81.82
2023-03-04T12:39:31.352Z,81.68
2023-03-04T12:41:57.721Z,81.44
2023-03-04T12:44:24.131Z,81.32
2023-03-04T12:46:50.536Z,81.18
2023-03-04T12:49:16.907Z,81.20
2023-03-04T12:51:43.305Z,81.16
2023-03-04T12:54:09.673Z,81.08
2023-03-04T12:56:36.030Z,81.16
2023-03-04T12:59:02.413Z,81.13
2023-03-04T13:01:28.782Z,80.97
2023-03-04T13:03:55.268Z,81.05
2023-03-04T13:06:22.104Z,80.50
2023-03-04T13:08:48.811Z,80.67
2023-03-04T13:11:15.180Z,80.46
2023-03-04T13:13:41.795Z,80.64
2023-03-04T13:16:08.207Z,80.98
2023-03-04T13:18:34.606Z,80.93
2023-03-04T13:21:00.995Z,80.76
2023-03-04T13:23:27.413Z,80.58
2023-03-04T13:25:54.162Z,80.81
2023-03-04T13:28:20.859Z,80.23
2023-03-04T13:30:49.695Z,80.08
2023-03-04T13:33:16.129Z,80.27
2023-03-04T13:35:42.657Z,80.52
2023-03-04T13:38:09.077Z,80.78
2023-03-04T13:40:35.479Z,80.84
2023-03-04T13:43:01.869Z,80.96
2023-03-04T13:45:28.246Z,80.93
2023-03-04T13:47:54.622Z,80.70
2023-03-04T13:50:21.018Z,80.95
2023-03-04T13:52:47.621Z,80.96
2023-03-04T13:55:14.011Z,80.89
2023-03-04T13:57:40.386Z,80.91
2023-03-04T14:00:06.769Z,80.61
2023-03-04T14:02:33.143Z,80.84
2023-03-04T14:04:59.593Z,80.31
2023-03-04T14:07:25.973Z,80.52
2023-03-04T14:09:52.383Z,80.37
2023-03-04T14:12:18.793Z,80.50
2023-03-04T14:14:45.377Z,80.47
2023-03-04T14:17:11.746Z,80.38
2023-03-04T14:19:38.107Z,80.39
2023-03-04T14:24:51.459Z,80.61
2023-03-04T14:27:17.847Z,80.54
2023-03-04T14:29:44.237Z,80.43
2023-03-04T14:32:10.648Z,80.67
2023-03-04T14:34:37.034Z,80.69
2023-03-04T14:37:03.439Z,80.69
2023-03-04T14:39:29.849Z,80.86
2023-03-04T14:41:56.230Z,80.89
2023-03-04T14:44:22.619Z,80.69
2023-03-04T14:47:04.587Z,80.56
2023-03-04T14:49:33.171Z,80.55
2023-03-04T14:52:00.650Z,80.45
2023-03-04T14:54:27.300Z,80.10
2023-03-04T14:56:53.736Z,80.58
2023-03-04T14:59:20.406Z,79.86
2023-03-04T15:01:46.812Z,80.42
2023-03-04T15:04:13.266Z,81.16
2023-03-04T15:06:39.712Z,80.20
2023-03-04T15:09:06.167Z,80.09
2023-03-04T15:11:32.691Z,79.81
2023-03-04T15:13:59.105Z,80.55
2023-03-04T15:16:25.569Z,81.63
2023-03-04T15:18:52.043Z,81.65
2023-03-04T15:21:18.449Z,81.40
2023-03-04T15:23:45.078Z,80.97
2023-03-04T15:26:11.518Z,81.36
2023-03-04T15:28:38.169Z,81.81
2023-03-04T15:31:04.740Z,81.87
2023-03-04T15:33:31.227Z,80.31
2023-03-04T15:35:57.926Z,80.96
2023-03-04T15:38:24.434Z,81.57
2023-03-04T15:40:53.296Z,80.91
2023-03-04T15:43:20.762Z,81.22
2023-03-04T15:45:47.260Z,81.72
2023-03-04T15:48:13.688Z,81.53
2023-03-04T15:50:40.135Z,81.04
2023-03-04T15:53:06.555Z,80.29
2023-03-04T15:55:32.939Z,80.04
2023-03-04T15:57:59.377Z,80.38
2023-03-04T16:00:25.764Z,80.26
2023-03-04T16:02:52.157Z,79.95
2023-03-04T16:05:18.573Z,79.73
2023-03-04T16:07:44.965Z,79.61
2023-03-04T16:10:11.343Z,79.75
2023-03-04T16:12:37.719Z,79.52
2023-03-04T16:15:05.816Z,79.69
2023-03-04T16:17:32.789Z,79.51
2023-03-04T16:19:59.416Z,79.10
2023-03-04T16:22:25.767Z,79.87
2023-03-04T16:24:52.176Z,80.22
2023-03-04T16:27:18.591Z,79.95
2023-03-04T16:29:45.010Z,80.29
2023-03-04T16:32:11.410Z,80.03
2023-03-04T16:34:37.810Z,79.88
2023-03-04T16:37:04.181Z,80.25
2023-03-04T16:39:30.543Z,80.58
2023-03-04T16:41:56.922Z,80.16
2023-03-04T16:44:23.316Z,80.65
2023-03-04T16:46:49.736Z,80.99
2023-03-04T16:49:16.393Z,81.52
2023-03-04T16:51:42.756Z,81.45
2023-03-04T16:54:09.142Z,81.73
2023-03-04T16:56:35.525Z,81.47
2023-03-04T16:59:02.536Z,81.73
2023-03-04T17:01:29.009Z,81.81
2023-03-04T17:03:55.459Z,82.17
2023-03-04T17:06:21.847Z,82.02
2023-03-04T17:08:49.502Z,82.65
2023-03-04T17:11:15.870Z,82.82
2023-03-04T17:13:42.225Z,82.76
2023-03-04T17:16:08.640Z,83.54
2023-03-04T17:18:35.260Z,83.52
2023-03-04T17:21:02.538Z,83.03
2023-03-04T17:23:28.934Z,82.85
2023-03-04T17:25:55.301Z,83.67
2023-03-04T17:28:21.695Z,83.87
2023-03-04T17:30:48.273Z,84.07
2023-03-04T17:33:14.669Z,83.29
2023-03-04T17:35:41.644Z,83.80
2023-03-04T17:38:08.101Z,83.63
2023-03-04T17:40:34.497Z,83.48
2023-03-04T17:43:00.907Z,83.59
2023-03-04T17:45:27.283Z,82.96
2023-03-04T17:47:53.678Z,82.81
2023-03-04T17:50:20.247Z,82.82
2023-03-04T17:52:46.853Z,82.45
2023-03-04T17:55:13.232Z,82.71
2023-03-04T17:57:39.619Z,82.77
2023-03-04T18:00:05.988Z,82.88
2023-03-04T18:02:32.599Z,82.76
2023-03-04T18:04:59.022Z,82.72
2023-03-04T18:07:25.850Z,82.87
2023-03-04T18:09:52.233Z,82.85
2023-03-04T18:12:18.627Z,83.08
2023-03-04T18:14:45.007Z,82.76
2023-03-04T18:17:11.404Z,82.70
2023-03-04T18:19:37.807Z,82.74
2023-03-04T18:24:50.449Z,82.59
2023-03-04T18:27:16.852Z,82.56
2023-03-04T18:29:43.248Z,82.59
2023-03-04T18:32:09.764Z,82.62
2023-03-04T18:34:36.186Z,82.51
2023-03-04T18:37:02.576Z,82.76
2023-03-04T18:39:28.969Z,82.68
2023-03-04T18:41:55.397Z,82.36
2023-03-04T18:44:21.818Z,82.48
2023-03-04T18:46:48.252Z,82.38
2023-03-04T18:49:14.673Z,82.59
2023-03-04T18:51:41.281Z,82.38
2023-03-04T18:54:07.673Z,82.31
2023-03-04T18:56:34.077Z,82.02
2023-03-04T18:59:00.614Z,82.12
2023-03-04T19:01:27.064Z,82.01
2023-03-04T19:03:53.503Z,81.86
2023-03-04T19:06:19.889Z,81.95
2023-03-04T19:08:46.264Z,81.72
2023-03-04T19:11:12.653Z,81.65
2023-03-04T19:13:39.066Z,81.63
2023-03-04T19:16:05.479Z,81.60
2023-03-04T19:18:31.876Z,81.43
2023-03-04T19:20:58.233Z,81.47
2023-03-04T19:23:24.635Z,81.39
2023-03-04T19:25:51.015Z,81.18
2023-03-04T19:28:17.435Z,81.25
2023-03-04T19:30:43.899Z,81.25
2023-03-04T19:33:10.594Z,81.38
2023-03-04T19:35:37.001Z,80.88
2023-03-04T19:38:03.379Z,81.04
2023-03-04T19:40:29.741Z,81.05
2023-03-04T19:42:56.124Z,80.98
2023-03-04T19:45:22.730Z,80.76
2023-03-04T19:47:49.140Z,80.75
2023-03-04T19:50:15.754Z,80.80
2023-03-04T19:52:42.133Z,80.65
2023-03-04T19:55:08.502Z,80.56
2023-03-04T19:57:34.893Z,80.35
2023-03-04T20:00:01.506Z,80.51
2023-03-04T20:02:27.899Z,80.34
2023-03-04T20:04:54.509Z,80.27
2023-03-04T20:07:20.925Z,80.13
2023-03-04T20:09:47.531Z,80.25
2023-03-04T20:12:13.928Z,80.20
2023-03-04T20:14:40.320Z,80.17
2023-03-04T20:17:06.744Z,80.09
2023-03-04T20:19:33.131Z,80.13
2023-03-04T20:21:59.509Z,80.09
2023-03-04T20:24:26.107Z,80.22
2023-03-04T20:26:52.532Z,80.00
2023-03-04T20:29:18.928Z,80.14
2023-03-04T20:31:45.294Z,80.09
2023-03-04T20:34:11.687Z,80.24
2023-03-04T20:36:38.275Z,80.32
2023-03-04T20:39:15.240Z,80.26
2023-03-04T20:41:48.310Z,80.05
2023-03-04T20:44:14.685Z,80.21
2023-03-04T20:46:41.343Z,80.00
2023-03-04T20:49:07.758Z,79.87
2023-03-04T20:51:34.340Z,79.78
2023-03-04T20:54:00.722Z,79.66
2023-03-04T20:56:27.306Z,79.36
2023-03-04T20:58:53.665Z,79.49
2023-03-04T21:01:20.046Z,79.41
2023-03-04T21:03:46.683Z,79.32
2023-03-04T21:06:13.077Z,79.47
2023-03-04T21:08:39.693Z,79.51
2023-03-04T21:11:06.070Z,79.55
2023-03-04T21:13:32.452Z,79.33
2023-03-04T21:15:58.900Z,79.64
2023-03-04T21:18:26.023Z,79.18
2023-03-04T21:20:53.473Z,79.15
2023-03-04T21:23:19.868Z,79.17
2023-03-04T21:25:46.258Z,79.18
2023-03-04T21:28:12.880Z,79.02
2023-03-04T21:30:39.456Z,79.16
2023-03-04T21:33:05.880Z,79.20
2023-03-04T21:35:32.510Z,78.72
2023-03-04T21:37:58.934Z,78.93
2023-03-04T21:40:25.521Z,79.31
2023-03-04T21:42:51.882Z,79.06
2023-03-04T21:45:18.283Z,79.10
2023-03-04T21:47:44.886Z,78.87
2023-03-04T21:50:11.324Z,78.86
2023-03-04T21:52:37.693Z,79.42
2023-03-04T21:55:04.083Z,79.22
2023-03-04T21:57:30.477Z,78.70
2023-03-04T21:59:56.842Z,78.82
2023-03-04T22:02:23.285Z,79.15
2023-03-04T22:04:49.784Z,78.83
2023-03-04T22:07:16.172Z,78.78
2023-03-04T22:09:42.777Z,78.90
2023-03-04T22:14:56.255Z,78.83
2023-03-04T22:17:22.734Z,78.79
2023-03-04T22:19:49.223Z,78.80
2023-03-04T22:22:15.938Z,78.94
2023-03-04T22:24:42.309Z,78.83
2023-03-04T22:27:08.933Z,78.74
2023-03-04T22:29:38.385Z,78.93
2023-03-04T22:32:04.773Z,78.81
2023-03-04T22:34:31.446Z,79.10
2023-03-04T22:36:57.812Z,78.94
2023-03-04T22:39:24.183Z,78.81
2023-03-04T22:41:50.811Z,78.97
2023-03-04T22:44:17.223Z,78.87
2023-03-04T22:46:43.638Z,78.88
2023-03-04T22:49:10.043Z,79.03
2023-03-04T22:51:36.657Z,79.10
2023-03-04T22:54:03.052Z,79.21
2023-03-04T22:56:29.434Z,79.26
2023-03-04T22:58:58.604Z,79.16
2023-03-04T23:01:25.087Z,79.16
2023-03-04T23:03:51.502Z,79.10
2023-03-04T23:06:18.312Z,78.97
2023-03-04T23:08:44.903Z,79.00
2023-03-04T23:11:11.508Z,79.08
2023-03-04T23:13:37.902Z,78.96
2023-03-04T23:16:04.303Z,79.08
2023-03-04T23:18:30.908Z,79.10
2023-03-04T23:20:57.503Z,79.20
2023-03-04T23:23:23.883Z,79.28
2023-03-04T23:25:50.268Z,79.11
2023-03-04T23:28:16.649Z,79.14
2023-03-04T23:30:43.293Z,79.22
2023-03-04T23:33:09.722Z,79.00
2023-03-04T23:35:36.202Z,79.03
2023-03-04T23:38:02.629Z,79.15
2023-03-04T23:40:29.220Z,79.15
2023-03-04T23:42:55.618Z,79.40
2023-03-04T23:45:21.990Z,79.36
2023-03-04T23:47:48.594Z,79.38
2023-03-04T23:50:15.184Z,79.09
2023-03-04T23:52:41.583Z,79.32
2023-03-04T23:55:08.169Z,79.19
2023-03-04T23:57:34.530Z,79.15
